This is the latest recevied weather packets stored in our database for station/object HARMALA. If no packets are shown the sender has not sent any weather packets the latest 10 day(s).
| Time | Temp. | Humidity | Pressure | Rain* | Wind** | Luminosity | Snow |
|---|---|---|---|---|---|---|---|
| 1778016441 | 3.33° C | 66% | 1007.3 hPa | 0 mm | - | - | - |
| 1778014041 | 3.89° C | 61% | 1006.9 hPa | 0 mm | - | - | - |
| 1778012841 | 4.44° C | 59% | 1006.7 hPa | 0 mm | - | - | - |
| 1778011640 | 4.44° C | 58% | 1006.7 hPa | 0 mm | - | - | - |
| 1778009241 | 5° C | 53% | 1006.4 hPa | 0 mm | - | - | - |
| 1778008040 | 5.56° C | 51% | 1006.2 hPa | 0 mm | - | - | - |
| 1778002039 | 7.78° C | 46% | 1005.1 hPa | 0 mm | - | - | - |
| 1777999640 | 8.33° C | 43% | 1004.9 hPa | 0 mm | - | - | - |
| 1777998440 | 8.33° C | 42% | 1004.7 hPa | 0 mm | - | - | - |
| 1777991239 | 8.89° C | 39% | 1004.2 hPa | 0 mm | - | - | - |
| 1777990039 | 8.89° C | 39% | 1004.1 hPa | 0 mm | - | - | - |
| 1777987639 | 8.89° C | 37% | 1004 hPa | 0 mm | - | - | - |
| 1777981639 | 8.89° C | 44% | 1003.4 hPa | 0 mm | - | - | - |
| 1777979238 | 8.33° C | 42% | 1003.1 hPa | 0 mm | - | - | - |
| 1777975638 | 8.33° C | 48% | 1002.4 hPa | 0 mm | - | - | - |
| 1777974438 | 7.78° C | 60% | 1002.3 hPa | 0 mm | - | - | - |
| 1777973238 | 6.11° C | 72% | 1002.5 hPa | 0 mm | - | - | - |
| 1777972038 | 7.22° C | 65% | 1002.1 hPa | 0 mm | - | - | - |
| 1777970839 | 6.67° C | 70% | 1002 hPa | 0 mm | - | - | - |
| 1777969638 | 5.56° C | 73% | 1002 hPa | 0 mm | - | - | - |
| 1777968438 | 5° C | 77% | 1001.7 hPa | 0 mm | - | - | - |
| 1777967238 | 4.44° C | 83% | 1001.7 hPa | 0 mm | - | - | - |
| 1777966038 | 4.44° C | 82% | 1001.3 hPa | 0 mm | - | - | - |
| 1777964837 | 4.44° C | 86% | 1001 hPa | 0 mm | - | - | - |
| 1777962437 | 3.89° C | 89% | 1000.4 hPa | 0 mm | - | - | - |
* Rain latest hour (hover to see other rain measurements)
** Current wind speed in m/s (hover to see current wind gust speed)